Time;durP1;ratioP1;P1;durP2;ratioP2;P2;SDS_P1;SDS_P2;PMS_P1;PMS_P2;Temp;Humidity;BMP_temperature;BMP_pressure;BME280_temperature;BME280_humidity;BME280_pressure;Samples;Min_cycle;Max_cycle;Signal;HPM_P1;HPM_P2
2021/06/20 00:00:46;;;;;;;43.97;32.83;;;18.60;97.20;;;;;;5073589;28;20032;-84
2021/06/20 00:03:12;;;;;;;50.40;38.10;;;18.60;97.20;;;;;;5077515;28;20035;-84
2021/06/20 00:05:50;;;;;;;48.00;35.95;;;18.70;97.30;;;;;;5078192;28;20024;-84
2021/06/20 00:08:16;;;;;;;41.42;32.28;;;18.80;97.30;;;;;;5078180;28;20035;-84
2021/06/20 00:10:43;;;;;;;47.40;35.47;;;18.80;97.30;;;;;;5075215;28;20484;-83
2021/06/20 00:13:08;;;;;;;45.33;33.03;;;18.80;97.40;;;;;;5065849;28;20024;-84
2021/06/20 00:15:35;;;;;;;41.47;32.40;;;18.90;97.40;;;;;;5068205;28;20036;-84
2021/06/20 00:18:03;;;;;;;38.83;30.23;;;19.00;97.40;;;;;;5074082;28;20028;-83
2021/06/20 00:20:31;;;;;;;47.92;33.80;;;19.10;97.40;;;;;;5073358;28;20029;-83
2021/06/20 00:22:57;;;;;;;43.78;35.13;;;19.20;97.40;;;;;;5076514;28;20024;-84
2021/06/20 00:25:26;;;;;;;43.33;34.20;;;19.30;97.50;;;;;;5077865;28;20032;-83
2021/06/20 00:27:53;;;;;;;40.83;33.20;;;19.40;97.40;;;;;;5074754;28;20115;-84
2021/06/20 00:30:20;;;;;;;51.90;37.17;;;19.50;97.30;;;;;;5071660;28;20032;-84
2021/06/20 00:32:47;;;;;;;44.38;35.45;;;19.50;97.30;;;;;;5063690;28;20016;-84
2021/06/20 00:35:14;;;;;;;45.67;36.28;;;19.50;97.30;;;;;;5077632;28;20385;-83
2021/06/20 00:37:39;;;;;;;44.78;35.95;;;19.50;97.30;;;;;;5067607;28;20468;-84
2021/06/20 00:40:05;;;;;;;43.50;35.35;;;19.60;97.20;;;;;;5075296;28;20124;-84
2021/06/20 00:42:32;;;;;;;44.78;34.63;;;19.60;97.20;;;;;;5066255;28;20116;-83
2021/06/20 00:44:57;;;;;;;43.50;35.22;;;19.60;97.10;;;;;;5066879;28;20028;-84
2021/06/20 00:47:23;;;;;;;45.45;36.17;;;19.60;97.10;;;;;;5076383;28;20098;-84
2021/06/20 00:49:49;;;;;;;43.00;34.65;;;19.60;97.10;;;;;;5072340;28;20115;-83
2021/06/20 00:52:14;;;;;;;44.92;35.67;;;19.70;97.20;;;;;;5064165;28;20017;-83
2021/06/20 00:54:47;;;;;;;44.88;33.72;;;19.70;97.10;;;;;;5073335;28;20036;-84
2021/06/20 00:57:18;;;;;;;49.15;35.17;;;19.60;97.10;;;;;;5055152;28;20481;-84
2021/06/20 00:59:45;;;;;;;47.75;37.03;;;19.70;97.10;;;;;;5070476;28;20017;-83
2021/06/20 01:02:12;;;;;;;44.78;34.65;;;19.60;97.10;;;;;;5073609;28;20388;-84
2021/06/20 01:04:41;;;;;;;45.42;37.05;;;19.70;97.10;;;;;;5065615;28;20020;-83
2021/06/20 01:07:07;;;;;;;47.15;36.33;;;19.70;97.10;;;;;;5062993;28;20032;-83
2021/06/20 01:09:32;;;;;;;46.17;36.20;;;19.70;97.10;;;;;;5068496;28;20056;-84
2021/06/20 01:11:58;;;;;;;43.22;34.45;;;19.60;97.10;;;;;;5057798;28;20028;-83
2021/06/20 01:14:24;;;;;;;42.30;34.88;;;19.60;97.10;;;;;;5060148;28;20036;-84
2021/06/20 01:16:50;;;;;;;44.60;35.03;;;19.60;97.10;;;;;;5057697;28;20106;-83
2021/06/20 01:19:18;;;;;;;45.00;35.33;;;19.60;97.10;;;;;;5071395;28;20021;-83
2021/06/20 01:21:43;;;;;;;42.30;33.17;;;19.60;97.20;;;;;;5071148;28;20036;-84
2021/06/20 01:24:09;;;;;;;46.85;34.95;;;19.70;97.20;;;;;;5070561;28;20449;-84
2021/06/20 01:26:35;;;;;;;42.05;35.42;;;19.70;97.20;;;;;;5071819;28;20472;-85
2021/06/20 01:29:05;;;;;;;45.00;35.83;;;19.70;97.10;;;;;;5058539;28;20025;-85
2021/06/20 01:31:33;;;;;;;50.10;37.78;;;19.70;97.10;;;;;;5072020;28;20115;-85
2021/06/20 01:34:00;;;;;;;54.72;37.40;;;19.70;97.10;;;;;;5062532;28;20066;-85
2021/06/20 01:36:25;;;;;;;44.97;36.60;;;19.70;97.10;;;;;;5068163;28;20084;-84
2021/06/20 01:38:51;;;;;;;52.00;39.58;;;19.60;97.10;;;;;;5067581;28;20068;-85
2021/06/20 01:41:17;;;;;;;54.40;42.58;;;19.60;97.00;;;;;;5068213;28;20028;-85
2021/06/20 01:43:42;;;;;;;55.45;42.70;;;19.50;97.00;;;;;;5073674;28;20025;-85
2021/06/20 01:46:08;;;;;;;56.28;41.88;;;19.50;97.10;;;;;;5072295;28;20071;-85
2021/06/20 01:48:36;;;;;;;56.75;43.28;;;19.50;97.10;;;;;;5067338;28;20040;-85
2021/06/20 01:51:04;;;;;;;58.30;43.20;;;19.40;97.10;;;;;;5073830;28;20053;-84
2021/06/20 01:53:29;;;;;;;58.60;44.45;;;19.30;97.10;;;;;;5074060;28;20044;-84
2021/06/20 01:55:56;;;;;;;57.38;44.33;;;19.30;97.20;;;;;;5069849;28;20068;-85
2021/06/20 01:58:21;;;;;;;59.13;45.08;;;19.30;97.20;;;;;;5071034;28;20083;-84
2021/06/20 02:00:50;;;;;;;59.70;42.33;;;19.30;97.30;;;;;;5073424;28;20032;-84
2021/06/20 02:03:18;;;;;;;60.60;44.50;;;19.30;97.20;;;;;;5071330;28;20119;-85
2021/06/20 02:05:46;;;;;;;54.03;43.35;;;19.20;97.20;;;;;;5084983;28;20067;-84
2021/06/20 02:08:17;;;;;;;58.95;43.53;;;19.20;97.20;;;;;;5073466;28;20059;-84
2021/06/20 02:10:44;;;;;;;62.20;47.55;;;19.10;97.10;;;;;;5067509;28;20032;-84
2021/06/20 02:13:09;;;;;;;62.55;47.28;;;19.10;97.10;;;;;;5072995;28;20027;-84
2021/06/20 02:15:35;;;;;;;59.90;44.92;;;19.10;97.20;;;;;;5068425;28;20446;-84
2021/06/20 02:18:01;;;;;;;66.15;47.55;;;19.00;97.20;;;;;;5072177;28;20021;-85
2021/06/20 02:20:26;;;;;;;65.63;49.25;;;18.90;97.20;;;;;;5072566;28;20115;-84
2021/06/20 02:22:52;;;;;;;73.15;52.25;;;18.90;97.20;;;;;;5072250;28;20044;-84
2021/06/20 02:25:19;;;;;;;67.82;48.60;;;18.80;97.30;;;;;;5069372;28;20025;-84
2021/06/20 02:27:48;;;;;;;60.00;44.95;;;18.80;97.30;;;;;;5072255;28;20021;-84
2021/06/20 02:30:15;;;;;;;58.92;43.85;;;18.80;97.30;;;;;;5071338;28;20028;-84
2021/06/20 02:32:41;;;;;;;56.45;43.70;;;18.80;97.30;;;;;;5071244;28;20408;-84
2021/06/20 02:35:10;;;;;;;59.40;46.17;;;18.80;97.30;;;;;;5071019;28;20040;-84
2021/06/20 02:37:36;;;;;;;63.80;47.20;;;18.70;97.30;;;;;;5058983;28;20021;-84
2021/06/20 02:40:02;;;;;;;65.53;48.95;;;18.70;97.30;;;;;;5059652;28;20436;-84
2021/06/20 02:42:28;;;;;;;65.07;45.63;;;18.70;97.30;;;;;;5061368;28;20396;-84
2021/06/20 02:44:54;;;;;;;66.18;48.15;;;18.70;97.30;;;;;;5069037;28;20035;-84
2021/06/20 02:47:19;;;;;;;59.30;43.97;;;18.70;97.40;;;;;;5070279;28;20048;-84
2021/06/20 02:49:46;;;;;;;61.70;44.78;;;18.70;97.40;;;;;;5071288;28;20142;-84
2021/06/20 02:52:14;;;;;;;73.03;49.47;;;18.80;97.40;;;;;;5072796;28;20116;-86
2021/06/20 02:54:49;;;;;;;64.90;48.05;;;18.70;97.30;;;;;;5072057;28;20119;-86
2021/06/20 02:57:20;;;;;;;66.95;49.40;;;18.70;97.20;;;;;;5071332;28;20025;-86
2021/06/20 02:59:46;;;;;;;70.38;51.83;;;18.60;97.30;;;;;;5070925;28;20025;-87
2021/06/20 03:02:11;;;;;;;64.60;47.13;;;18.60;97.30;;;;;;5069399;28;20058;-86
2021/06/20 03:04:37;;;;;;;65.10;46.20;;;18.50;97.30;;;;;;5071659;28;20036;-86
2021/06/20 03:07:04;;;;;;;64.53;47.47;;;18.50;97.30;;;;;;5071710;28;20086;-85
2021/06/20 03:09:29;;;;;;;63.50;48.20;;;18.50;97.40;;;;;;5058786;28;20024;-86
2021/06/20 03:11:55;;;;;;;67.05;48.55;;;18.40;97.30;;;;;;5072584;28;20036;-86
2021/06/20 03:14:21;;;;;;;64.28;46.33;;;18.40;97.40;;;;;;5070853;28;20020;-85
2021/06/20 03:16:46;;;;;;;59.30;44.05;;;18.40;97.40;;;;;;5071596;28;20041;-85
2021/06/20 03:19:13;;;;;;;54.50;40.40;;;18.40;97.40;;;;;;5067846;28;20018;-85
2021/06/20 03:21:39;;;;;;;59.50;44.10;;;18.40;97.40;;;;;;5063412;28;20025;-85
2021/06/20 03:24:05;;;;;;;53.65;40.95;;;18.30;97.40;;;;;;5063390;28;20123;-86
2021/06/20 03:26:31;;;;;;;54.22;41.00;;;18.30;97.50;;;;;;5072324;28;20158;-85
2021/06/20 03:28:57;;;;;;;58.15;40.22;;;18.20;97.40;;;;;;5061904;28;20090;-85
2021/06/20 03:31:23;;;;;;;57.83;41.65;;;18.20;97.50;;;;;;5071919;28;20111;-85
2021/06/20 03:33:49;;;;;;;54.33;39.70;;;18.20;97.50;;;;;;5071123;28;20028;-85
2021/06/20 03:36:15;;;;;;;54.47;41.03;;;18.20;97.50;;;;;;5067568;28;20496;-85
2021/06/20 03:38:40;;;;;;;55.08;40.28;;;18.10;97.50;;;;;;5071674;28;20035;-85
2021/06/20 03:41:10;;;;;;;52.63;39.88;;;18.10;97.60;;;;;;5071272;28;20028;-85
2021/06/20 03:43:37;;;;;;;58.97;43.25;;;18.10;97.60;;;;;;5071288;28;20083;-85
2021/06/20 03:46:02;;;;;;;59.47;42.95;;;18.10;97.60;;;;;;5064089;28;20040;-85
2021/06/20 03:48:28;;;;;;;58.92;42.97;;;18.00;97.70;;;;;;5062638;28;20036;-85
2021/06/20 03:50:54;;;;;;;56.78;38.40;;;18.10;97.70;;;;;;5069467;28;20447;-86
2021/06/20 03:53:19;;;;;;;64.13;46.63;;;18.00;97.70;;;;;;5071376;28;20038;-85
2021/06/20 03:55:45;;;;;;;61.22;43.97;;;18.00;97.70;;;;;;5067943;28;20120;-85
2021/06/20 03:58:10;;;;;;;66.05;45.25;;;18.00;97.70;;;;;;5071845;28;20029;-85
2021/06/20 04:00:37;;;;;;;70.07;48.42;;;18.00;97.80;;;;;;5073281;28;20047;-85
2021/06/20 04:03:04;;;;;;;73.20;48.95;;;17.90;97.80;;;;;;5069349;28;20370;-85
2021/06/20 04:05:30;;;;;;;76.75;50.35;;;18.00;97.80;;;;;;5064429;28;20447;-85
2021/06/20 04:07:56;;;;;;;82.03;50.10;;;18.00;97.80;;;;;;5068404;28;20025;-85
2021/06/20 04:10:21;;;;;;;79.00;52.72;;;17.90;97.80;;;;;;5061712;28;20036;-85
2021/06/20 04:12:47;;;;;;;88.03;55.25;;;18.00;97.90;;;;;;5072329;28;20020;-85
2021/06/20 04:15:12;;;;;;;85.70;53.97;;;18.00;97.90;;;;;;5069288;28;20072;-85
2021/06/20 04:17:38;;;;;;;74.05;49.30;;;18.00;97.90;;;;;;5064051;28;20028;-85
2021/06/20 04:20:07;;;;;;;76.20;48.92;;;18.00;97.90;;;;;;5064429;28;20040;-84
2021/06/20 04:22:33;;;;;;;73.43;50.17;;;18.00;97.90;;;;;;5072300;28;20051;-85
2021/06/20 04:24:59;;;;;;;75.43;49.08;;;18.10;98.00;;;;;;5070456;28;20495;-85
2021/06/20 04:27:25;;;;;;;63.15;43.08;;;18.00;97.90;;;;;;5069407;28;20089;-85
2021/06/20 04:29:51;;;;;;;71.60;47.17;;;18.10;97.90;;;;;;5068473;28;20119;-84
2021/06/20 04:32:16;;;;;;;72.13;45.15;;;18.10;97.90;;;;;;5075315;28;20032;-85
2021/06/20 04:34:42;;;;;;;74.15;47.90;;;18.10;97.90;;;;;;5072426;28;20028;-84
2021/06/20 04:37:07;;;;;;;70.70;46.28;;;18.10;97.90;;;;;;5075402;28;20039;-85
2021/06/20 04:39:33;;;;;;;63.75;42.25;;;18.10;97.90;;;;;;5075543;28;20487;-84
2021/06/20 04:41:59;;;;;;;68.75;42.80;;;18.10;97.90;;;;;;5074711;28;20031;-85
2021/06/20 04:44:45;;;;;;;64.45;42.25;;;18.20;97.90;;;;;;5074977;28;20023;-84
2021/06/20 04:47:15;;;;;;;68.20;44.05;;;18.20;97.90;;;;;;5062922;28;20034;-85
2021/06/20 04:49:42;;;;;;;65.53;42.22;;;18.20;97.90;;;;;;5060932;28;20066;-85
2021/06/20 04:52:09;;;;;;;68.07;43.58;;;18.20;97.90;;;;;;5074400;28;20484;-85
2021/06/20 04:54:36;;;;;;;65.88;43.38;;;18.20;97.90;;;;;;5073308;28;20456;-84
2021/06/20 04:57:03;;;;;;;71.25;46.67;;;18.20;97.80;;;;;;5073912;28;20036;-85
2021/06/20 04:59:30;;;;;;;74.43;46.20;;;18.30;97.80;;;;;;5074921;28;20077;-85
2021/06/20 05:01:56;;;;;;;62.22;40.60;;;18.30;97.80;;;;;;5074310;28;20391;-85
2021/06/20 05:04:21;;;;;;;68.57;43.30;;;18.30;97.80;;;;;;5074530;28;20029;-85
2021/06/20 05:06:47;;;;;;;60.17;41.08;;;18.40;97.90;;;;;;5074623;28;20117;-85
2021/06/20 05:09:12;;;;;;;77.20;47.40;;;18.40;97.80;;;;;;5073723;28;20028;-85
2021/06/20 05:11:38;;;;;;;67.22;43.50;;;18.40;97.80;;;;;;5074017;28;20028;-84
2021/06/20 05:14:03;;;;;;;71.10;44.53;;;18.40;97.70;;;;;;5074275;28;20040;-84
2021/06/20 05:16:29;;;;;;;71.53;43.83;;;18.40;97.70;;;;;;5073853;28;20517;-84
2021/06/20 05:18:55;;;;;;;72.35;44.67;;;18.50;97.70;;;;;;5075160;28;20020;-84
2021/06/20 05:21:20;;;;;;;70.18;46.13;;;18.50;97.60;;;;;;5074832;28;20016;-84
2021/06/20 05:23:46;;;;;;;69.88;45.42;;;18.60;97.60;;;;;;5073847;28;20031;-84
2021/06/20 05:26:12;;;;;;;73.22;46.78;;;18.60;97.50;;;;;;5069502;28;20385;-85
2021/06/20 05:28:38;;;;;;;69.20;45.13;;;18.60;97.50;;;;;;5074417;28;20078;-85
2021/06/20 05:31:04;;;;;;;67.35;44.22;;;18.60;97.60;;;;;;5074447;28;20060;-85
2021/06/20 05:33:29;;;;;;;69.72;44.80;;;18.70;97.50;;;;;;5074280;28;20059;-84
2021/06/20 05:35:55;;;;;;;69.10;44.25;;;18.80;97.40;;;;;;5074330;28;20051;-84
2021/06/20 05:38:20;;;;;;;64.55;42.65;;;18.80;97.30;;;;;;5070034;28;20025;-84
2021/06/20 05:40:46;;;;;;;67.65;44.15;;;18.80;97.30;;;;;;5068895;28;20036;-85
2021/06/20 05:43:11;;;;;;;64.97;43.03;;;18.80;97.10;;;;;;5072378;28;20017;-84
2021/06/20 05:45:37;;;;;;;63.63;42.83;;;18.80;97.10;;;;;;5072885;28;20036;-84
2021/06/20 05:48:03;;;;;;;65.80;42.35;;;18.80;97.10;;;;;;5073330;28;20045;-85
2021/06/20 05:50:29;;;;;;;66.57;41.92;;;18.80;97.00;;;;;;5073476;28;20035;-85
2021/06/20 05:52:58;;;;;;;64.40;41.00;;;18.80;97.00;;;;;;5073341;28;20031;-85
2021/06/20 05:55:23;;;;;;;70.95;44.63;;;18.80;97.00;;;;;;5074063;28;20041;-84
2021/06/20 05:57:49;;;;;;;61.10;39.83;;;18.80;97.00;;;;;;5073399;28;20025;-84
2021/06/20 06:00:15;;;;;;;62.08;41.92;;;18.80;97.00;;;;;;5070259;28;20033;-85
2021/06/20 06:02:41;;;;;;;62.47;41.05;;;18.80;96.90;;;;;;5071183;28;20107;-84
2021/06/20 06:05:08;;;;;;;63.42;42.63;;;18.80;96.80;;;;;;5071748;28;20035;-84
2021/06/20 06:07:34;;;;;;;58.85;37.35;;;18.80;96.80;;;;;;5072040;28;20020;-85
2021/06/20 06:09:59;;;;;;;59.85;38.00;;;18.90;96.80;;;;;;5069132;28;20027;-84
2021/06/20 06:12:25;;;;;;;58.83;37.50;;;18.90;96.80;;;;;;5072810;28;20051;-85
2021/06/20 06:14:52;;;;;;;57.63;39.58;;;18.90;96.70;;;;;;5071041;28;20086;-84
2021/06/20 06:17:20;;;;;;;57.70;38.42;;;18.90;96.70;;;;;;5069648;28;20124;-85
2021/06/20 06:19:50;;;;;;;61.53;38.40;;;18.90;96.70;;;;;;5069135;28;20020;-85
2021/06/20 06:22:17;;;;;;;56.72;38.60;;;18.90;96.60;;;;;;5069495;28;20123;-84
2021/06/20 06:24:44;;;;;;;56.80;37.60;;;19.00;96.60;;;;;;5071437;28;20063;-86
2021/06/20 06:27:09;;;;;;;57.67;39.25;;;19.10;96.60;;;;;;5073495;28;20024;-84
2021/06/20 06:29:35;;;;;;;53.20;36.53;;;19.30;96.50;;;;;;5080543;28;20095;-86
2021/06/20 06:32:00;;;;;;;58.90;40.35;;;19.30;96.30;;;;;;5083413;28;20206;-86
2021/06/20 06:34:26;;;;;;;60.72;40.85;;;19.40;96.10;;;;;;5072514;28;20028;-86
2021/06/20 06:36:52;;;;;;;61.92;42.80;;;19.60;95.90;;;;;;5069155;28;20043;-84
2021/06/20 06:39:19;;;;;;;55.95;37.65;;;19.70;95.40;;;;;;5071634;28;20024;-84
2021/06/20 06:41:44;;;;;;;58.05;40.00;;;19.90;95.30;;;;;;5072875;28;20038;-84
2021/06/20 06:44:10;;;;;;;56.33;39.78;;;20.00;95.00;;;;;;5072849;28;20040;-84
2021/06/20 06:46:35;;;;;;;55.67;40.22;;;20.20;94.80;;;;;;5070707;28;20388;-83
2021/06/20 06:49:01;;;;;;;57.67;42.28;;;20.30;94.10;;;;;;5071694;28;20132;-84
2021/06/20 06:51:27;;;;;;;53.78;39.58;;;20.40;93.90;;;;;;5061126;28;20044;-84
2021/06/20 06:53:52;;;;;;;54.38;37.78;;;20.60;93.90;;;;;;5063512;28;20017;-84
2021/06/20 06:56:18;;;;;;;46.45;35.08;;;20.70;93.60;;;;;;5069734;28;20100;-83
2021/06/20 06:58:43;;;;;;;52.22;37.05;;;20.80;93.20;;;;;;5071341;28;20025;-84
2021/06/20 07:01:09;;;;;;;46.53;34.40;;;20.80;92.90;;;;;;5070418;28;20025;-84
2021/06/20 07:03:34;;;;;;;47.25;33.97;;;20.70;92.90;;;;;;5058896;28;20029;-84
2021/06/20 07:06:00;;;;;;;50.08;36.53;;;20.70;92.70;;;;;;5068330;28;20028;-84
2021/06/20 07:08:25;;;;;;;49.88;35.47;;;20.70;92.80;;;;;;5064011;28;20021;-84
2021/06/20 07:10:51;;;;;;;43.72;32.85;;;20.60;92.50;;;;;;5071107;28;20111;-84
2021/06/20 07:13:16;;;;;;;45.88;32.03;;;20.50;92.30;;;;;;5071225;28;20452;-84
2021/06/20 07:15:42;;;;;;;44.95;32.20;;;20.40;92.40;;;;;;5066986;28;20052;-84
2021/06/20 07:18:08;;;;;;;43.92;31.60;;;20.40;92.50;;;;;;5062030;28;20421;-84
2021/06/20 07:20:33;;;;;;;42.40;31.23;;;20.40;92.30;;;;;;5064870;28;20035;-83
2021/06/20 07:22:59;;;;;;;39.10;28.75;;;20.40;92.40;;;;;;5069465;28;20028;-84
2021/06/20 07:25:25;;;;;;;45.45;31.42;;;20.40;92.40;;;;;;5066283;28;20048;-84
2021/06/20 07:27:51;;;;;;;42.55;30.80;;;20.40;92.30;;;;;;5071329;28;20023;-84
2021/06/20 07:30:20;;;;;;;40.90;29.77;;;20.40;92.20;;;;;;5069705;28;20043;-85
2021/06/20 07:32:46;;;;;;;37.55;28.08;;;20.40;92.10;;;;;;5072313;28;20464;-84
2021/06/20 07:35:13;;;;;;;37.13;27.75;;;20.40;92.10;;;;;;5068492;28;20039;-84
2021/06/20 07:37:39;;;;;;;37.42;27.23;;;20.40;92.00;;;;;;5071274;28;20028;-85
2021/06/20 07:40:07;;;;;;;35.17;26.90;;;20.40;92.00;;;;;;5070168;28;20032;-84
2021/06/20 07:42:32;;;;;;;39.03;27.05;;;20.50;91.90;;;;;;5071699;28;20078;-85
2021/06/20 07:44:58;;;;;;;35.03;26.10;;;20.60;91.90;;;;;;5072001;28;20021;-84
2021/06/20 07:47:23;;;;;;;35.67;26.67;;;20.80;92.10;;;;;;5071137;28;20059;-84
2021/06/20 07:49:49;;;;;;;36.30;26.33;;;21.10;91.70;;;;;;5069096;28;20052;-84
2021/06/20 07:52:15;;;;;;;33.05;25.80;;;21.20;91.10;;;;;;5069025;28;20075;-85
2021/06/20 07:54:49;;;;;;;30.25;24.05;;;21.30;91.00;;;;;;5058874;28;20024;-85
2021/06/20 07:57:15;;;;;;;29.25;21.63;;;21.40;90.60;;;;;;5058439;28;20097;-85
2021/06/20 07:59:41;;;;;;;29.08;23.23;;;21.60;90.00;;;;;;5071471;28;20021;-84
2021/06/20 08:02:06;;;;;;;26.55;21.40;;;21.50;89.10;;;;;;5062249;28;20040;-85
2021/06/20 08:04:32;;;;;;;28.63;20.65;;;21.40;89.50;;;;;;5071461;28;20016;-84
2021/06/20 08:06:57;;;;;;;25.98;19.77;;;21.30;89.60;;;;;;5074867;28;20025;-85
2021/06/20 08:09:23;;;;;;;24.75;19.40;;;21.30;89.50;;;;;;5075067;28;20303;-85
2021/06/20 08:11:48;;;;;;;28.70;21.00;;;21.20;89.00;;;;;;5074545;28;20111;-85
2021/06/20 08:14:14;;;;;;;27.02;20.23;;;21.00;88.60;;;;;;5074013;28;20025;-85
2021/06/20 08:16:40;;;;;;;22.05;17.77;;;20.90;89.10;;;;;;5066409;28;20033;-85
2021/06/20 08:19:05;;;;;;;20.77;15.73;;;20.90;89.50;;;;;;5069343;28;20024;-85
2021/06/20 08:21:31;;;;;;;22.38;17.83;;;20.90;89.40;;;;;;5076065;28;20150;-86
2021/06/20 08:23:56;;;;;;;23.48;16.85;;;21.00;89.50;;;;;;5063941;28;20044;-84
2021/06/20 08:26:22;;;;;;;22.15;16.95;;;21.00;89.00;;;;;;5071281;28;20021;-85
2021/06/20 08:28:47;;;;;;;23.02;17.67;;;21.10;88.80;;;;;;5072395;28;20032;-85
2021/06/20 08:31:13;;;;;;;25.50;17.52;;;21.10;88.70;;;;;;5065760;28;20035;-84
2021/06/20 08:33:39;;;;;;;20.65;15.95;;;21.10;89.00;;;;;;5075301;28;20103;-84
2021/06/20 08:36:05;;;;;;;20.25;15.10;;;21.10;89.00;;;;;;5074799;28;20492;-84
2021/06/20 08:38:30;;;;;;;20.33;14.90;;;21.00;88.20;;;;;;5074541;28;20028;-84
2021/06/20 08:40:56;;;;;;;21.00;15.30;;;21.00;88.30;;;;;;5069749;28;20087;-83
2021/06/20 08:43:23;;;;;;;19.15;14.95;;;20.90;88.40;;;;;;5065755;28;20032;-84
2021/06/20 08:45:54;;;;;;;20.35;15.13;;;20.90;88.80;;;;;;5068701;28;20083;-84
2021/06/20 08:48:20;;;;;;;22.02;15.77;;;20.90;88.30;;;;;;5066864;28;20040;-84
2021/06/20 08:50:48;;;;;;;18.92;13.93;;;20.80;88.40;;;;;;5072549;28;20475;-83
2021/06/20 08:53:16;;;;;;;20.48;14.52;;;20.80;88.30;;;;;;5066883;28;20112;-84
2021/06/20 08:55:43;;;;;;;16.73;14.13;;;20.80;88.70;;;;;;5071796;28;20067;-84
2021/06/20 08:58:18;;;;;;;21.85;16.52;;;20.90;88.80;;;;;;5073872;28;20029;-84
2021/06/20 09:00:44;;;;;;;19.88;15.52;;;21.00;88.00;;;;;;5073753;28;20055;-87
2021/06/20 09:03:09;;;;;;;18.00;14.55;;;21.10;88.10;;;;;;5055514;28;20523;-84
2021/06/20 09:05:35;;;;;;;20.75;14.88;;;21.20;88.00;;;;;;5073469;28;20111;-84
2021/06/20 09:08:00;;;;;;;18.60;13.07;;;21.40;87.20;;;;;;5074101;28;20024;-84
2021/06/20 09:10:30;;;;;;;16.58;12.52;;;21.60;86.80;;;;;;5074529;28;20063;-84
2021/06/20 09:12:58;;;;;;;15.80;12.40;;;21.70;85.10;;;;;;5074227;28;20036;-83
2021/06/20 09:15:26;;;;;;;15.30;12.18;;;21.80;85.10;;;;;;5073293;28;20032;-84
2021/06/20 09:17:55;;;;;;;15.70;11.90;;;21.80;84.70;;;;;;5073548;28;20055;-84
2021/06/20 09:20:41;;;;;;;13.82;11.80;;;21.80;83.80;;;;;;5074211;28;20396;-84
2021/06/20 09:23:15;;;;;;;16.92;12.45;;;21.80;84.50;;;;;;5063106;28;20071;-84
2021/06/20 09:25:43;;;;;;;14.35;11.55;;;21.80;84.00;;;;;;5054706;28;20032;-84
2021/06/20 09:28:10;;;;;;;14.73;12.07;;;22.00;83.70;;;;;;5062362;28;20021;-84
2021/06/20 09:30:51;;;;;;;13.68;10.38;;;22.10;83.50;;;;;;5073759;28;20021;-84
2021/06/20 09:33:17;;;;;;;11.70;9.77;;;22.40;84.00;;;;;;5074077;28;20024;-84
2021/06/20 09:35:48;;;;;;;13.35;9.57;;;22.60;82.60;;;;;;5074034;28;20119;-84
2021/06/20 09:38:20;;;;;;;12.70;9.37;;;22.70;81.50;;;;;;5074014;28;20032;-84
2021/06/20 09:40:46;;;;;;;11.02;8.93;;;22.70;81.10;;;;;;5074524;28;20115;-84
2021/06/20 09:43:14;;;;;;;11.35;9.75;;;22.70;81.00;;;;;;5073625;28;20025;-84
2021/06/20 09:45:45;;;;;;;11.30;8.77;;;22.70;80.50;;;;;;5073702;28;20024;-84
2021/06/20 09:48:40;;;;;;;10.83;9.03;;;22.80;80.10;;;;;;5073467;28;20044;-85
2021/06/20 09:51:13;;;;;;;12.63;10.43;;;22.80;80.00;;;;;;5061133;28;20352;-84
2021/06/20 09:53:40;;;;;;;11.88;10.27;;;22.90;80.50;;;;;;5073458;28;20021;-85
2021/06/20 09:56:19;;;;;;;12.40;10.18;;;23.00;80.20;;;;;;5073536;28;20484;-85
2021/06/20 09:58:59;;;;;;;12.52;10.05;;;23.00;80.80;;;;;;5058620;28;20024;-84
2021/06/20 10:01:27;;;;;;;10.93;9.45;;;23.10;80.90;;;;;;5053683;28;20021;-84
2021/06/20 10:03:53;;;;;;;12.10;9.55;;;23.20;80.50;;;;;;5064485;28;20024;-84
2021/06/20 10:06:19;;;;;;;12.73;8.40;;;23.40;80.60;;;;;;5072931;28;20024;-84
2021/06/20 10:08:45;;;;;;;9.93;8.43;;;23.60;78.40;;;;;;5073177;28;20034;-83
2021/06/20 10:11:12;;;;;;;10.65;7.93;;;23.70;78.20;;;;;;5073184;28;20423;-85
2021/06/20 10:13:38;;;;;;;9.07;6.93;;;23.70;76.90;;;;;;5073168;28;20024;-84
2021/06/20 10:16:21;;;;;;;8.43;7.22;;;23.90;77.00;;;;;;5058200;28;20041;-84
2021/06/20 10:18:54;;;;;;;9.20;7.38;;;23.90;76.50;;;;;;5053113;28;20048;-84
2021/06/20 10:21:31;;;;;;;9.35;7.53;;;23.90;75.00;;;;;;5062978;28;20023;-84
2021/06/20 10:24:23;;;;;;;8.75;7.65;;;23.90;74.60;;;;;;5072959;28;20436;-84
2021/06/20 10:26:56;;;;;;;13.68;9.48;;;23.90;74.90;;;;;;5069728;28;20028;-85
2021/06/20 10:29:25;;;;;;;12.38;10.75;;;23.90;75.00;;;;;;5068530;28;20021;-85
2021/06/20 10:31:51;;;;;;;13.38;9.80;;;23.70;75.50;;;;;;5053007;28;20033;-84
2021/06/20 10:34:21;;;;;;;11.88;10.55;;;23.50;76.50;;;;;;5054025;28;20503;-85
2021/06/20 10:36:48;;;;;;;10.68;9.10;;;23.40;77.40;;;;;;5072816;28;20036;-84
2021/06/20 10:39:14;;;;;;;9.88;8.52;;;23.30;77.30;;;;;;5072851;28;20016;-84
2021/06/20 10:41:40;;;;;;;10.57;9.48;;;23.30;77.90;;;;;;5072769;28;20388;-85
2021/06/20 10:44:05;;;;;;;10.15;9.02;;;23.40;78.10;;;;;;5059993;28;20151;-85
2021/06/20 10:46:31;;;;;;;9.27;7.78;;;23.30;78.30;;;;;;5070794;28;20067;-84
2021/06/20 10:48:58;;;;;;;10.10;8.20;;;23.30;78.40;;;;;;5072467;28;20524;-84
2021/06/20 10:51:24;;;;;;;9.45;8.00;;;23.40;78.60;;;;;;5072536;28;20533;-84
2021/06/20 10:53:51;;;;;;;13.23;10.20;;;23.70;78.40;;;;;;5072418;28;20032;-84
2021/06/20 10:56:26;;;;;;;11.55;9.30;;;24.10;77.90;;;;;;5072177;28;20033;-84
2021/06/20 10:58:54;;;;;;;12.18;9.73;;;24.50;76.90;;;;;;5072256;28;20028;-84
2021/06/20 11:01:21;;;;;;;12.80;8.75;;;24.90;75.50;;;;;;5058889;28;20032;-85
2021/06/20 11:03:59;;;;;;;8.32;7.22;;;25.00;75.00;;;;;;5052496;28;20033;-85
2021/06/20 11:06:26;;;;;;;8.02;7.22;;;25.10;74.80;;;;;;5065656;28;20040;-85
2021/06/20 11:08:58;;;;;;;11.00;7.82;;;25.10;73.50;;;;;;5072270;28;20044;-85
2021/06/20 11:11:29;;;;;;;11.90;8.02;;;25.20;72.60;;;;;;5063831;28;20032;-85
2021/06/20 11:13:54;;;;;;;9.38;8.32;;;25.20;72.30;;;;;;5052546;28;20021;-85
2021/06/20 11:16:40;;;;;;;10.90;9.80;;;25.10;71.90;;;;;;5053418;28;20032;-85
2021/06/20 11:19:25;;;;;;;9.20;8.23;;;25.20;72.00;;;;;;5052272;28;20033;-85
2021/06/20 11:22:02;;;;;;;9.10;7.43;;;25.30;72.00;;;;;;5052037;28;20033;-85
2021/06/20 11:24:31;;;;;;;8.18;7.38;;;25.40;71.10;;;;;;5057946;28;20050;-85
2021/06/20 11:26:57;;;;;;;9.02;7.30;;;25.50;71.70;;;;;;5072172;28;20115;-85
2021/06/20 11:29:24;;;;;;;9.32;8.02;;;25.70;71.40;;;;;;5072384;28;20017;-85
2021/06/20 11:31:53;;;;;;;8.65;6.63;;;25.80;71.30;;;;;;5072173;28;20085;-85
2021/06/20 11:34:19;;;;;;;7.47;5.53;;;26.00;70.70;;;;;;5071929;28;20021;-85
2021/06/20 11:36:45;;;;;;;10.82;8.38;;;26.20;68.70;;;;;;5063647;28;20032;-85
2021/06/20 11:39:12;;;;;;;9.60;8.52;;;26.20;68.50;;;;;;5051241;28;20488;-85
2021/06/20 11:41:51;;;;;;;9.82;8.82;;;26.10;68.90;;;;;;5055506;28;20032;-85
2021/06/20 11:44:19;;;;;;;13.23;10.05;;;25.90;70.00;;;;;;5073443;28;20025;-85
2021/06/20 11:46:47;;;;;;;10.80;9.52;;;25.80;69.80;;;;;;5071703;28;20027;-85
2021/06/20 11:49:17;;;;;;;9.70;8.68;;;25.80;69.40;;;;;;5072312;28;20036;-86
2021/06/20 11:51:49;;;;;;;10.32;8.77;;;25.60;70.00;;;;;;5061090;28;20025;-86
2021/06/20 11:54:28;;;;;;;;;;;25.50;70.20;;;;;;5053835;28;20025;-85
2021/06/20 11:57:01;;;;;;;11.18;9.70;;;25.10;70.10;;;;;;5053329;28;19920;-86
2021/06/20 11:59:30;;;;;;;10.77;9.68;;;24.90;70.90;;;;;;5067732;28;20017;-86
2021/06/20 12:01:55;;;;;;;10.25;7.90;;;24.90;70.90;;;;;;5073054;28;20033;-85
2021/06/20 12:04:24;;;;;;;6.97;6.15;;;25.10;71.20;;;;;;5073323;28;20021;-85
2021/06/20 12:06:50;;;;;;;7.82;7.07;;;25.20;69.60;;;;;;5073288;28;20035;-86
2021/06/20 12:09:16;;;;;;;7.47;6.63;;;25.30;69.50;;;;;;5072171;28;20411;-86
2021/06/20 12:11:44;;;;;;;8.75;6.80;;;25.50;69.10;;;;;;5073248;28;20659;-86
2021/06/20 12:14:23;;;;;;;5.72;4.63;;;25.60;69.20;;;;;;5073297;28;20063;-86
2021/06/20 12:16:50;;;;;;;5.65;5.15;;;25.70;68.40;;;;;;5072062;28;20033;-86
2021/06/20 12:19:18;;;;;;;6.95;5.90;;;25.70;68.20;;;;;;5073281;28;20028;-86
2021/06/20 12:21:45;;;;;;;7.10;5.80;;;25.80;67.30;;;;;;5072043;28;20025;-86
2021/06/20 12:24:12;;;;;;;7.50;5.72;;;25.80;66.30;;;;;;5071701;28;20078;-86
2021/06/20 12:26:45;;;;;;;7.85;5.72;;;25.80;66.50;;;;;;5073075;28;20388;-86
2021/06/20 12:29:10;;;;;;;6.47;4.43;;;25.70;67.10;;;;;;5053008;28;20035;-86
2021/06/20 12:31:36;;;;;;;5.78;5.18;;;25.80;68.10;;;;;;5052954;28;20021;-86